sensor_id;sensor_type;location;lat;lon;timestamp;P1;durP1;ratioP1;P2;durP2;ratioP2
23080;SDS011;11708;50.570;8.532;2023-01-01T00:01:40;57.95;;;36.33;;
23080;SDS011;11708;50.570;8.532;2023-01-01T00:04:08;48.10;;;31.60;;
23080;SDS011;11708;50.570;8.532;2023-01-01T00:06:36;56.05;;;33.97;;
23080;SDS011;11708;50.570;8.532;2023-01-01T00:09:02;47.95;;;32.15;;
23080;SDS011;11708;50.570;8.532;2023-01-01T00:11:46;45.55;;;28.95;;
23080;SDS011;11708;50.570;8.532;2023-01-01T00:14:12;88.35;;;55.28;;
23080;SDS011;11708;50.570;8.532;2023-01-01T00:16:38;81.95;;;52.50;;
23080;SDS011;11708;50.570;8.532;2023-01-01T00:19:04;70.95;;;45.42;;
23080;SDS011;11708;50.570;8.532;2023-01-01T00:21:30;48.17;;;32.80;;
23080;SDS011;11708;50.570;8.532;2023-01-01T00:23:56;54.30;;;34.45;;
23080;SDS011;11708;50.570;8.532;2023-01-01T00:26:22;60.53;;;37.97;;
23080;SDS011;11708;50.570;8.532;2023-01-01T00:28:47;51.95;;;32.08;;
23080;SDS011;11708;50.570;8.532;2023-01-01T00:31:17;45.40;;;30.83;;
23080;SDS011;11708;50.570;8.532;2023-01-01T00:33:50;59.80;;;36.30;;
23080;SDS011;11708;50.570;8.532;2023-01-01T00:36:18;70.68;;;44.42;;
23080;SDS011;11708;50.570;8.532;2023-01-01T00:38:44;50.53;;;30.33;;
23080;SDS011;11708;50.570;8.532;2023-01-01T00:41:11;54.72;;;33.97;;
23080;SDS011;11708;50.570;8.532;2023-01-01T00:43:38;42.22;;;26.58;;
23080;SDS011;11708;50.570;8.532;2023-01-01T00:46:04;40.63;;;26.58;;
23080;SDS011;11708;50.570;8.532;2023-01-01T00:48:31;42.03;;;25.73;;
23080;SDS011;11708;50.570;8.532;2023-01-01T00:50:57;42.90;;;25.63;;
23080;SDS011;11708;50.570;8.532;2023-01-01T00:53:22;48.55;;;29.35;;
23080;SDS011;11708;50.570;8.532;2023-01-01T00:55:48;46.17;;;28.90;;
23080;SDS011;11708;50.570;8.532;2023-01-01T00:58:15;57.72;;;35.97;;
23080;SDS011;11708;50.570;8.532;2023-01-01T01:00:42;45.03;;;28.30;;
23080;SDS011;11708;50.570;8.532;2023-01-01T01:03:09;39.33;;;24.92;;
23080;SDS011;11708;50.570;8.532;2023-01-01T01:05:51;38.70;;;25.50;;
23080;SDS011;11708;50.570;8.532;2023-01-01T01:08:18;49.45;;;30.65;;
23080;SDS011;11708;50.570;8.532;2023-01-01T01:10:44;44.33;;;29.65;;
23080;SDS011;11708;50.570;8.532;2023-01-01T01:13:09;47.55;;;28.63;;
23080;SDS011;11708;50.570;8.532;2023-01-01T01:15:36;41.10;;;25.83;;
23080;SDS011;11708;50.570;8.532;2023-01-01T01:18:02;47.97;;;29.30;;
23080;SDS011;11708;50.570;8.532;2023-01-01T01:20:28;45.45;;;27.33;;
23080;SDS011;11708;50.570;8.532;2023-01-01T01:22:54;41.00;;;25.25;;
23080;SDS011;11708;50.570;8.532;2023-01-01T01:25:20;32.85;;;20.08;;
23080;SDS011;11708;50.570;8.532;2023-01-01T01:27:46;42.63;;;24.17;;
23080;SDS011;11708;50.570;8.532;2023-01-01T01:30:12;25.90;;;14.77;;
23080;SDS011;11708;50.570;8.532;2023-01-01T01:32:38;20.15;;;12.40;;
23080;SDS011;11708;50.570;8.532;2023-01-01T01:35:04;27.40;;;16.35;;
23080;SDS011;11708;50.570;8.532;2023-01-01T01:37:30;20.65;;;11.77;;
23080;SDS011;11708;50.570;8.532;2023-01-01T01:39:56;8.52;;;5.43;;
23080;SDS011;11708;50.570;8.532;2023-01-01T01:42:22;11.23;;;6.88;;
23080;SDS011;11708;50.570;8.532;2023-01-01T01:44:49;11.70;;;7.38;;
23080;SDS011;11708;50.570;8.532;2023-01-01T01:47:27;19.35;;;13.52;;
23080;SDS011;11708;50.570;8.532;2023-01-01T01:52:56;25.38;;;16.52;;
23080;SDS011;11708;50.570;8.532;2023-01-01T01:55:33;21.65;;;13.82;;
23080;SDS011;11708;50.570;8.532;2023-01-01T01:58:01;17.75;;;11.05;;
23080;SDS011;11708;50.570;8.532;2023-01-01T02:00:28;18.92;;;10.05;;
23080;SDS011;11708;50.570;8.532;2023-01-01T02:03:07;12.93;;;7.20;;
23080;SDS011;11708;50.570;8.532;2023-01-01T02:05:36;11.80;;;5.30;;
23080;SDS011;11708;50.570;8.532;2023-01-01T02:08:04;11.05;;;6.00;;
23080;SDS011;11708;50.570;8.532;2023-01-01T02:10:30;7.05;;;5.00;;
23080;SDS011;11708;50.570;8.532;2023-01-01T02:12:57;9.02;;;3.85;;
23080;SDS011;11708;50.570;8.532;2023-01-01T02:15:24;5.47;;;3.63;;
23080;SDS011;11708;50.570;8.532;2023-01-01T02:18:04;8.48;;;3.95;;
23080;SDS011;11708;50.570;8.532;2023-01-01T02:20:39;7.53;;;4.38;;
23080;SDS011;11708;50.570;8.532;2023-01-01T02:26:04;9.73;;;5.55;;
23080;SDS011;11708;50.570;8.532;2023-01-01T02:29:02;14.63;;;5.75;;
23080;SDS011;11708;50.570;8.532;2023-01-01T02:32:03;8.52;;;4.93;;
23080;SDS011;11708;50.570;8.532;2023-01-01T02:34:58;9.45;;;4.78;;
23080;SDS011;11708;50.570;8.532;2023-01-01T02:37:47;8.57;;;5.07;;
23080;SDS011;11708;50.570;8.532;2023-01-01T02:40:17;12.43;;;6.25;;
23080;SDS011;11708;50.570;8.532;2023-01-01T02:42:45;9.15;;;5.18;;
23080;SDS011;11708;50.570;8.532;2023-01-01T02:45:12;9.02;;;5.97;;
23080;SDS011;11708;50.570;8.532;2023-01-01T02:47:38;9.85;;;6.10;;
23080;SDS011;11708;50.570;8.532;2023-01-01T02:50:06;9.05;;;5.47;;
23080;SDS011;11708;50.570;8.532;2023-01-01T02:55:23;10.32;;;6.57;;
23080;SDS011;11708;50.570;8.532;2023-01-01T02:58:03;12.30;;;6.97;;
23080;SDS011;11708;50.570;8.532;2023-01-01T03:01:18;11.50;;;6.70;;
23080;SDS011;11708;50.570;8.532;2023-01-01T03:03:55;11.43;;;7.15;;
23080;SDS011;11708;50.570;8.532;2023-01-01T03:09:13;11.73;;;7.00;;
23080;SDS011;11708;50.570;8.532;2023-01-01T03:17:17;13.57;;;7.95;;
23080;SDS011;11708;50.570;8.532;2023-01-01T03:20:00;13.90;;;8.02;;
23080;SDS011;11708;50.570;8.532;2023-01-01T03:22:31;13.68;;;7.88;;
23080;SDS011;11708;50.570;8.532;2023-01-01T03:25:07;14.38;;;8.23;;
23080;SDS011;11708;50.570;8.532;2023-01-01T03:27:45;14.38;;;8.40;;
23080;SDS011;11708;50.570;8.532;2023-01-01T03:30:13;11.63;;;8.05;;
23080;SDS011;11708;50.570;8.532;2023-01-01T03:32:55;13.95;;;8.45;;
23080;SDS011;11708;50.570;8.532;2023-01-01T03:35:25;15.15;;;8.18;;
23080;SDS011;11708;50.570;8.532;2023-01-01T03:37:54;12.60;;;8.02;;
23080;SDS011;11708;50.570;8.532;2023-01-01T03:40:24;13.38;;;7.97;;
23080;SDS011;11708;50.570;8.532;2023-01-01T03:42:53;13.00;;;7.68;;
23080;SDS011;11708;50.570;8.532;2023-01-01T03:45:26;14.85;;;7.95;;
23080;SDS011;11708;50.570;8.532;2023-01-01T03:47:55;12.02;;;7.78;;
23080;SDS011;11708;50.570;8.532;2023-01-01T03:50:22;14.73;;;7.85;;
23080;SDS011;11708;50.570;8.532;2023-01-01T03:53:05;20.23;;;7.80;;
23080;SDS011;11708;50.570;8.532;2023-01-01T03:55:44;13.30;;;7.60;;
23080;SDS011;11708;50.570;8.532;2023-01-01T03:58:19;14.20;;;7.68;;
23080;SDS011;11708;50.570;8.532;2023-01-01T04:00:54;9.38;;;7.05;;
23080;SDS011;11708;50.570;8.532;2023-01-01T04:03:26;12.23;;;7.20;;
23080;SDS011;11708;50.570;8.532;2023-01-01T04:05:53;10.35;;;6.25;;
23080;SDS011;11708;50.570;8.532;2023-01-01T04:08:19;11.80;;;6.70;;
23080;SDS011;11708;50.570;8.532;2023-01-01T04:10:46;12.68;;;7.05;;
23080;SDS011;11708;50.570;8.532;2023-01-01T04:13:15;11.65;;;6.85;;
23080;SDS011;11708;50.570;8.532;2023-01-01T04:15:41;11.65;;;6.88;;
23080;SDS011;11708;50.570;8.532;2023-01-01T04:18:07;13.70;;;7.07;;
23080;SDS011;11708;50.570;8.532;2023-01-01T04:20:33;11.02;;;6.40;;
23080;SDS011;11708;50.570;8.532;2023-01-01T04:22:59;9.48;;;5.80;;
23080;SDS011;11708;50.570;8.532;2023-01-01T04:25:26;9.68;;;5.85;;
23080;SDS011;11708;50.570;8.532;2023-01-01T04:27:52;8.68;;;6.10;;
23080;SDS011;11708;50.570;8.532;2023-01-01T04:30:18;8.27;;;4.90;;
23080;SDS011;11708;50.570;8.532;2023-01-01T04:32:44;8.52;;;5.30;;
23080;SDS011;11708;50.570;8.532;2023-01-01T04:35:11;8.23;;;5.20;;
23080;SDS011;11708;50.570;8.532;2023-01-01T04:37:39;7.68;;;5.43;;
23080;SDS011;11708;50.570;8.532;2023-01-01T04:40:05;10.05;;;5.18;;
23080;SDS011;11708;50.570;8.532;2023-01-01T04:42:32;10.20;;;5.00;;
23080;SDS011;11708;50.570;8.532;2023-01-01T04:44:58;11.35;;;5.00;;
23080;SDS011;11708;50.570;8.532;2023-01-01T04:47:24;7.60;;;4.70;;
23080;SDS011;11708;50.570;8.532;2023-01-01T04:49:51;7.90;;;4.63;;
23080;SDS011;11708;50.570;8.532;2023-01-01T04:52:17;7.85;;;4.63;;
23080;SDS011;11708;50.570;8.532;2023-01-01T04:54:42;9.68;;;4.80;;
23080;SDS011;11708;50.570;8.532;2023-01-01T04:57:08;9.50;;;4.68;;
23080;SDS011;11708;50.570;8.532;2023-01-01T04:59:34;6.88;;;4.68;;
23080;SDS011;11708;50.570;8.532;2023-01-01T05:01:59;7.60;;;4.43;;
23080;SDS011;11708;50.570;8.532;2023-01-01T05:04:25;7.55;;;4.70;;
23080;SDS011;11708;50.570;8.532;2023-01-01T05:06:51;7.20;;;4.25;;
23080;SDS011;11708;50.570;8.532;2023-01-01T05:09:17;9.65;;;5.00;;
23080;SDS011;11708;50.570;8.532;2023-01-01T05:11:43;6.25;;;4.05;;
23080;SDS011;11708;50.570;8.532;2023-01-01T05:14:08;5.95;;;4.05;;
23080;SDS011;11708;50.570;8.532;2023-01-01T05:16:35;7.07;;;3.90;;
23080;SDS011;11708;50.570;8.532;2023-01-01T05:19:02;5.55;;;3.50;;
23080;SDS011;11708;50.570;8.532;2023-01-01T05:21:29;7.35;;;3.50;;
23080;SDS011;11708;50.570;8.532;2023-01-01T05:24:03;6.43;;;3.80;;
23080;SDS011;11708;50.570;8.532;2023-01-01T05:26:33;6.10;;;3.72;;
23080;SDS011;11708;50.570;8.532;2023-01-01T05:29:01;6.90;;;3.50;;
23080;SDS011;11708;50.570;8.532;2023-01-01T05:31:29;6.72;;;3.70;;
23080;SDS011;11708;50.570;8.532;2023-01-01T05:33:56;8.02;;;3.40;;
23080;SDS011;11708;50.570;8.532;2023-01-01T05:36:25;7.50;;;3.85;;
23080;SDS011;11708;50.570;8.532;2023-01-01T05:38:53;5.75;;;3.08;;
23080;SDS011;11708;50.570;8.532;2023-01-01T05:41:19;6.78;;;3.15;;
23080;SDS011;11708;50.570;8.532;2023-01-01T05:43:45;7.55;;;3.85;;
23080;SDS011;11708;50.570;8.532;2023-01-01T05:46:22;6.72;;;3.22;;
23080;SDS011;11708;50.570;8.532;2023-01-01T05:48:49;4.05;;;3.35;;
23080;SDS011;11708;50.570;8.532;2023-01-01T05:51:16;4.05;;;3.22;;
23080;SDS011;11708;50.570;8.532;2023-01-01T05:53:43;4.18;;;3.08;;
23080;SDS011;11708;50.570;8.532;2023-01-01T05:56:09;6.32;;;3.88;;
23080;SDS011;11708;50.570;8.532;2023-01-01T05:58:36;9.32;;;3.10;;
23080;SDS011;11708;50.570;8.532;2023-01-01T06:01:07;7.90;;;3.10;;
23080;SDS011;11708;50.570;8.532;2023-01-01T06:03:34;7.70;;;3.55;;
23080;SDS011;11708;50.570;8.532;2023-01-01T06:06:04;4.53;;;3.10;;
23080;SDS011;11708;50.570;8.532;2023-01-01T06:08:32;3.78;;;2.80;;
23080;SDS011;11708;50.570;8.532;2023-01-01T06:11:02;6.45;;;3.13;;
23080;SDS011;11708;50.570;8.532;2023-01-01T06:13:29;4.97;;;2.90;;
23080;SDS011;11708;50.570;8.532;2023-01-01T06:15:56;5.25;;;3.33;;
23080;SDS011;11708;50.570;8.532;2023-01-01T06:18:22;6.63;;;3.78;;
23080;SDS011;11708;50.570;8.532;2023-01-01T06:20:50;4.10;;;2.80;;
23080;SDS011;11708;50.570;8.532;2023-01-01T06:23:16;7.10;;;3.08;;
23080;SDS011;11708;50.570;8.532;2023-01-01T06:25:42;4.75;;;2.92;;
23080;SDS011;11708;50.570;8.532;2023-01-01T06:28:08;4.97;;;2.70;;
23080;SDS011;11708;50.570;8.532;2023-01-01T06:30:34;4.50;;;3.17;;
23080;SDS011;11708;50.570;8.532;2023-01-01T06:33:00;5.95;;;2.90;;
23080;SDS011;11708;50.570;8.532;2023-01-01T06:35:27;6.40;;;3.15;;
23080;SDS011;11708;50.570;8.532;2023-01-01T06:37:53;5.80;;;3.15;;
23080;SDS011;11708;50.570;8.532;2023-01-01T06:40:19;5.07;;;3.00;;
23080;SDS011;11708;50.570;8.532;2023-01-01T06:42:46;3.90;;;2.78;;
23080;SDS011;11708;50.570;8.532;2023-01-01T06:45:12;6.40;;;2.80;;
23080;SDS011;11708;50.570;8.532;2023-01-01T06:47:38;5.53;;;2.72;;
23080;SDS011;11708;50.570;8.532;2023-01-01T06:50:03;6.45;;;3.13;;
23080;SDS011;11708;50.570;8.532;2023-01-01T06:52:29;5.90;;;3.10;;
23080;SDS011;11708;50.570;8.532;2023-01-01T06:54:55;5.30;;;2.92;;
23080;SDS011;11708;50.570;8.532;2023-01-01T06:57:21;5.22;;;2.70;;
23080;SDS011;11708;50.570;8.532;2023-01-01T06:59:47;6.93;;;3.05;;
23080;SDS011;11708;50.570;8.532;2023-01-01T07:02:13;7.82;;;3.28;;
23080;SDS011;11708;50.570;8.532;2023-01-01T07:04:39;7.22;;;3.15;;
23080;SDS011;11708;50.570;8.532;2023-01-01T07:07:05;6.60;;;3.25;;
23080;SDS011;11708;50.570;8.532;2023-01-01T07:09:31;8.02;;;3.35;;
23080;SDS011;11708;50.570;8.532;2023-01-01T07:11:57;8.18;;;2.83;;
23080;SDS011;11708;50.570;8.532;2023-01-01T07:14:22;5.68;;;2.90;;
23080;SDS011;11708;50.570;8.532;2023-01-01T07:16:48;7.03;;;3.03;;
23080;SDS011;11708;50.570;8.532;2023-01-01T07:19:14;7.97;;;3.08;;
23080;SDS011;11708;50.570;8.532;2023-01-01T07:21:58;5.28;;;3.22;;
23080;SDS011;11708;50.570;8.532;2023-01-01T07:24:23;5.97;;;2.60;;
23080;SDS011;11708;50.570;8.532;2023-01-01T07:26:49;10.75;;;3.13;;
23080;SDS011;11708;50.570;8.532;2023-01-01T07:29:15;5.35;;;2.67;;
23080;SDS011;11708;50.570;8.532;2023-01-01T07:31:41;4.72;;;3.10;;
23080;SDS011;11708;50.570;8.532;2023-01-01T07:34:10;5.53;;;2.70;;
23080;SDS011;11708;50.570;8.532;2023-01-01T07:36:38;7.03;;;3.25;;
23080;SDS011;11708;50.570;8.532;2023-01-01T07:39:03;4.85;;;2.80;;
23080;SDS011;11708;50.570;8.532;2023-01-01T07:41:29;4.32;;;2.95;;
23080;SDS011;11708;50.570;8.532;2023-01-01T07:43:54;4.15;;;3.25;;
23080;SDS011;11708;50.570;8.532;2023-01-01T07:46:20;6.93;;;3.08;;
23080;SDS011;11708;50.570;8.532;2023-01-01T07:48:47;4.60;;;3.05;;
23080;SDS011;11708;50.570;8.532;2023-01-01T07:51:13;4.25;;;2.90;;
23080;SDS011;11708;50.570;8.532;2023-01-01T07:53:39;5.15;;;3.10;;
23080;SDS011;11708;50.570;8.532;2023-01-01T07:56:05;3.92;;;2.78;;
23080;SDS011;11708;50.570;8.532;2023-01-01T07:58:31;8.27;;;3.30;;
23080;SDS011;11708;50.570;8.532;2023-01-01T08:00:57;5.70;;;3.17;;
23080;SDS011;11708;50.570;8.532;2023-01-01T08:03:23;6.30;;;2.90;;
23080;SDS011;11708;50.570;8.532;2023-01-01T08:05:50;5.88;;;3.20;;
23080;SDS011;11708;50.570;8.532;2023-01-01T08:08:16;4.82;;;2.90;;
23080;SDS011;11708;50.570;8.532;2023-01-01T08:10:42;5.10;;;3.05;;
23080;SDS011;11708;50.570;8.532;2023-01-01T08:13:08;7.82;;;3.20;;
23080;SDS011;11708;50.570;8.532;2023-01-01T08:15:34;5.57;;;3.28;;
23080;SDS011;11708;50.570;8.532;2023-01-01T08:18:01;4.78;;;2.67;;
23080;SDS011;11708;50.570;8.532;2023-01-01T08:20:32;6.90;;;2.67;;
23080;SDS011;11708;50.570;8.532;2023-01-01T08:22:58;4.50;;;2.80;;
23080;SDS011;11708;50.570;8.532;2023-01-01T08:25:23;5.07;;;2.70;;
23080;SDS011;11708;50.570;8.532;2023-01-01T08:27:50;7.10;;;3.30;;
23080;SDS011;11708;50.570;8.532;2023-01-01T08:30:16;5.60;;;2.83;;
23080;SDS011;11708;50.570;8.532;2023-01-01T08:32:41;6.45;;;2.85;;
23080;SDS011;11708;50.570;8.532;2023-01-01T08:35:08;8.98;;;2.88;;
23080;SDS011;11708;50.570;8.532;2023-01-01T08:37:34;6.80;;;3.10;;
23080;SDS011;11708;50.570;8.532;2023-01-01T08:39:59;6.68;;;2.85;;
23080;SDS011;11708;50.570;8.532;2023-01-01T08:42:25;6.20;;;2.65;;
23080;SDS011;11708;50.570;8.532;2023-01-01T08:44:51;6.32;;;2.90;;
23080;SDS011;11708;50.570;8.532;2023-01-01T08:47:21;5.53;;;2.80;;
23080;SDS011;11708;50.570;8.532;2023-01-01T08:49:48;6.18;;;2.58;;
23080;SDS011;11708;50.570;8.532;2023-01-01T08:52:14;5.68;;;3.15;;
23080;SDS011;11708;50.570;8.532;2023-01-01T08:54:41;12.75;;;4.05;;
23080;SDS011;11708;50.570;8.532;2023-01-01T08:57:06;6.20;;;2.80;;
23080;SDS011;11708;50.570;8.532;2023-01-01T08:59:32;5.82;;;2.80;;
23080;SDS011;11708;50.570;8.532;2023-01-01T09:01:58;4.20;;;3.13;;
23080;SDS011;11708;50.570;8.532;2023-01-01T09:04:24;7.97;;;3.05;;
23080;SDS011;11708;50.570;8.532;2023-01-01T09:06:50;9.85;;;3.05;;
23080;SDS011;11708;50.570;8.532;2023-01-01T09:09:16;4.88;;;2.70;;
23080;SDS011;11708;50.570;8.532;2023-01-01T09:11:52;7.50;;;3.28;;
23080;SDS011;11708;50.570;8.532;2023-01-01T09:14:18;4.78;;;2.67;;
23080;SDS011;11708;50.570;8.532;2023-01-01T09:16:45;9.63;;;2.92;;
23080;SDS011;11708;50.570;8.532;2023-01-01T09:19:11;7.18;;;3.08;;
23080;SDS011;11708;50.570;8.532;2023-01-01T09:21:37;6.93;;;3.33;;
23080;SDS011;11708;50.570;8.532;2023-01-01T09:24:03;3.88;;;2.63;;
23080;SDS011;11708;50.570;8.532;2023-01-01T09:26:29;5.40;;;2.80;;
23080;SDS011;11708;50.570;8.532;2023-01-01T09:28:55;5.50;;;2.88;;
23080;SDS011;11708;50.570;8.532;2023-01-01T09:31:22;5.45;;;2.55;;
23080;SDS011;11708;50.570;8.532;2023-01-01T09:33:48;4.18;;;3.20;;
23080;SDS011;11708;50.570;8.532;2023-01-01T09:38:47;10.27;;;3.03;;
23080;SDS011;11708;50.570;8.532;2023-01-01T09:46:51;5.35;;;2.92;;
23080;SDS011;11708;50.570;8.532;2023-01-01T09:49:21;6.13;;;2.80;;
23080;SDS011;11708;50.570;8.532;2023-01-01T09:51:57;6.38;;;3.25;;
23080;SDS011;11708;50.570;8.532;2023-01-01T09:54:29;5.38;;;2.50;;
23080;SDS011;11708;50.570;8.532;2023-01-01T09:57:01;7.70;;;3.15;;
23080;SDS011;11708;50.570;8.532;2023-01-01T09:59:30;5.70;;;2.63;;
23080;SDS011;11708;50.570;8.532;2023-01-01T10:08:33;4.75;;;2.60;;
23080;SDS011;11708;50.570;8.532;2023-01-01T10:10:49;7.82;;;2.58;;
23080;SDS011;11708;50.570;8.532;2023-01-01T10:16:10;7.75;;;2.85;;
23080;SDS011;11708;50.570;8.532;2023-01-01T10:18:43;3.90;;;2.40;;
23080;SDS011;11708;50.570;8.532;2023-01-01T10:21:17;5.55;;;2.67;;
23080;SDS011;11708;50.570;8.532;2023-01-01T10:23:53;6.10;;;2.60;;
23080;SDS011;11708;50.570;8.532;2023-01-01T10:26:23;8.70;;;2.85;;
23080;SDS011;11708;50.570;8.532;2023-01-01T10:28:58;6.30;;;3.05;;
23080;SDS011;11708;50.570;8.532;2023-01-01T10:31:44;7.82;;;2.70;;
23080;SDS011;11708;50.570;8.532;2023-01-01T10:36:46;5.28;;;2.38;;
23080;SDS011;11708;50.570;8.532;2023-01-01T10:39:15;4.28;;;2.55;;
23080;SDS011;11708;50.570;8.532;2023-01-01T10:41:42;5.65;;;2.58;;
23080;SDS011;11708;50.570;8.532;2023-01-01T10:44:10;4.85;;;2.35;;
23080;SDS011;11708;50.570;8.532;2023-01-01T10:46:40;4.35;;;2.45;;
23080;SDS011;11708;50.570;8.532;2023-01-01T10:49:11;4.70;;;2.80;;
23080;SDS011;11708;50.570;8.532;2023-01-01T10:51:56;5.53;;;2.78;;
23080;SDS011;11708;50.570;8.532;2023-01-01T10:54:24;6.80;;;3.10;;
23080;SDS011;11708;50.570;8.532;2023-01-01T10:57:39;4.45;;;2.53;;
23080;SDS011;11708;50.570;8.532;2023-01-01T11:02:41;5.13;;;2.63;;
23080;SDS011;11708;50.570;8.532;2023-01-01T11:05:17;3.78;;;2.85;;
23080;SDS011;11708;50.570;8.532;2023-01-01T11:07:44;7.90;;;3.30;;
23080;SDS011;11708;50.570;8.532;2023-01-01T11:10:21;4.40;;;2.80;;
23080;SDS011;11708;50.570;8.532;2023-01-01T11:12:49;4.97;;;2.42;;
23080;SDS011;11708;50.570;8.532;2023-01-01T11:18:06;6.63;;;2.80;;
23080;SDS011;11708;50.570;8.532;2023-01-01T11:20:37;8.20;;;2.88;;
23080;SDS011;11708;50.570;8.532;2023-01-01T11:28:38;5.55;;;2.80;;
23080;SDS011;11708;50.570;8.532;2023-01-01T11:31:30;5.25;;;2.20;;
23080;SDS011;11708;50.570;8.532;2023-01-01T11:34:39;7.05;;;2.88;;
23080;SDS011;11708;50.570;8.532;2023-01-01T11:39:48;8.18;;;2.75;;
23080;SDS011;11708;50.570;8.532;2023-01-01T11:42:16;5.32;;;2.33;;
23080;SDS011;11708;50.570;8.532;2023-01-01T11:44:45;4.78;;;2.30;;
23080;SDS011;11708;50.570;8.532;2023-01-01T11:47:20;6.60;;;2.70;;
23080;SDS011;11708;50.570;8.532;2023-01-01T11:49:54;7.00;;;2.80;;
23080;SDS011;11708;50.570;8.532;2023-01-01T11:52:39;7.75;;;2.80;;
23080;SDS011;11708;50.570;8.532;2023-01-01T11:55:25;6.45;;;2.50;;
23080;SDS011;11708;50.570;8.532;2023-01-01T11:58:08;4.68;;;3.05;;
23080;SDS011;11708;50.570;8.532;2023-01-01T12:00:48;7.22;;;2.80;;
23080;SDS011;11708;50.570;8.532;2023-01-01T12:03:22;6.90;;;3.10;;
23080;SDS011;11708;50.570;8.532;2023-01-01T12:06:06;6.05;;;3.28;;
23080;SDS011;11708;50.570;8.532;2023-01-01T12:09:02;6.00;;;2.72;;
23080;SDS011;11708;50.570;8.532;2023-01-01T12:11:35;4.97;;;2.50;;
23080;SDS011;11708;50.570;8.532;2023-01-01T12:14:17;5.75;;;2.88;;
23080;SDS011;11708;50.570;8.532;2023-01-01T12:16:47;6.00;;;2.50;;
23080;SDS011;11708;50.570;8.532;2023-01-01T12:22:33;7.68;;;3.10;;
23080;SDS011;11708;50.570;8.532;2023-01-01T12:24:58;7.18;;;2.88;;
23080;SDS011;11708;50.570;8.532;2023-01-01T12:27:29;6.85;;;2.58;;
23080;SDS011;11708;50.570;8.532;2023-01-01T12:33:05;7.25;;;2.80;;
23080;SDS011;11708;50.570;8.532;2023-01-01T12:36:03;7.40;;;2.65;;
23080;SDS011;11708;50.570;8.532;2023-01-01T12:39:03;4.55;;;2.80;;
23080;SDS011;11708;50.570;8.532;2023-01-01T12:47:01;9.07;;;2.97;;
23080;SDS011;11708;50.570;8.532;2023-01-01T12:57:30;9.25;;;2.67;;
23080;SDS011;11708;50.570;8.532;2023-01-01T12:59:59;5.90;;;2.35;;
23080;SDS011;11708;50.570;8.532;2023-01-01T13:02:28;7.93;;;2.50;;
23080;SDS011;11708;50.570;8.532;2023-01-01T13:05:02;3.97;;;2.58;;
23080;SDS011;11708;50.570;8.532;2023-01-01T13:07:37;6.30;;;2.58;;
23080;SDS011;11708;50.570;8.532;2023-01-01T13:10:07;7.85;;;2.60;;
23080;SDS011;11708;50.570;8.532;2023-01-01T13:12:45;8.30;;;3.00;;
23080;SDS011;11708;50.570;8.532;2023-01-01T13:17:59;6.32;;;2.67;;
23080;SDS011;11708;50.570;8.532;2023-01-01T13:20:25;3.63;;;2.28;;
23080;SDS011;11708;50.570;8.532;2023-01-01T13:22:50;4.82;;;2.42;;
23080;SDS011;11708;50.570;8.532;2023-01-01T13:38:44;6.32;;;2.90;;
23080;SDS011;11708;50.570;8.532;2023-01-01T13:41:40;7.85;;;3.35;;
23080;SDS011;11708;50.570;8.532;2023-01-01T13:52:06;5.07;;;2.50;;
23080;SDS011;11708;50.570;8.532;2023-01-01T13:58:06;2.92;;;2.25;;
23080;SDS011;11708;50.570;8.532;2023-01-01T14:00:52;7.35;;;2.28;;
23080;SDS011;11708;50.570;8.532;2023-01-01T14:03:46;4.97;;;2.45;;
23080;SDS011;11708;50.570;8.532;2023-01-01T14:06:20;6.68;;;2.70;;
23080;SDS011;11708;50.570;8.532;2023-01-01T14:09:21;10.48;;;3.08;;
23080;SDS011;11708;50.570;8.532;2023-01-01T14:11:46;5.18;;;2.75;;
23080;SDS011;11708;50.570;8.532;2023-01-01T14:14:23;6.88;;;2.97;;
23080;SDS011;11708;50.570;8.532;2023-01-01T14:16:52;6.25;;;2.33;;
23080;SDS011;11708;50.570;8.532;2023-01-01T14:19:21;6.32;;;2.70;;
23080;SDS011;11708;50.570;8.532;2023-01-01T14:21:47;5.88;;;2.80;;
23080;SDS011;11708;50.570;8.532;2023-01-01T14:24:14;8.85;;;2.47;;
23080;SDS011;11708;50.570;8.532;2023-01-01T14:26:42;6.13;;;2.58;;
23080;SDS011;11708;50.570;8.532;2023-01-01T14:29:09;5.78;;;2.60;;
23080;SDS011;11708;50.570;8.532;2023-01-01T14:31:45;10.10;;;2.55;;
23080;SDS011;11708;50.570;8.532;2023-01-01T14:34:27;7.10;;;2.35;;
23080;SDS011;11708;50.570;8.532;2023-01-01T14:36:55;8.98;;;2.53;;
23080;SDS011;11708;50.570;8.532;2023-01-01T14:39:24;4.57;;;2.42;;
23080;SDS011;11708;50.570;8.532;2023-01-01T14:41:51;5.30;;;2.53;;
23080;SDS011;11708;50.570;8.532;2023-01-01T14:44:19;7.00;;;2.30;;
23080;SDS011;11708;50.570;8.532;2023-01-01T14:46:49;7.18;;;2.30;;
23080;SDS011;11708;50.570;8.532;2023-01-01T14:49:18;4.35;;;2.20;;
23080;SDS011;11708;50.570;8.532;2023-01-01T14:51:50;5.55;;;2.60;;
23080;SDS011;11708;50.570;8.532;2023-01-01T14:54:40;6.07;;;2.63;;
23080;SDS011;11708;50.570;8.532;2023-01-01T14:57:09;8.00;;;3.28;;
23080;SDS011;11708;50.570;8.532;2023-01-01T14:59:46;8.40;;;3.58;;
23080;SDS011;11708;50.570;8.532;2023-01-01T15:02:15;5.93;;;3.00;;
23080;SDS011;11708;50.570;8.532;2023-01-01T15:04:41;7.05;;;2.80;;
23080;SDS011;11708;50.570;8.532;2023-01-01T15:07:21;8.23;;;3.58;;
23080;SDS011;11708;50.570;8.532;2023-01-01T15:09:55;6.85;;;2.95;;
23080;SDS011;11708;50.570;8.532;2023-01-01T15:12:24;6.30;;;2.78;;
23080;SDS011;11708;50.570;8.532;2023-01-01T15:14:51;12.55;;;3.33;;
23080;SDS011;11708;50.570;8.532;2023-01-01T15:17:22;7.63;;;2.95;;
23080;SDS011;11708;50.570;8.532;2023-01-01T15:19:59;8.88;;;3.15;;
23080;SDS011;11708;50.570;8.532;2023-01-01T15:22:26;8.55;;;2.78;;
23080;SDS011;11708;50.570;8.532;2023-01-01T15:24:57;5.43;;;3.53;;
23080;SDS011;11708;50.570;8.532;2023-01-01T15:27:26;8.02;;;3.42;;
23080;SDS011;11708;50.570;8.532;2023-01-01T15:29:53;10.48;;;4.15;;
23080;SDS011;11708;50.570;8.532;2023-01-01T15:32:24;7.88;;;3.70;;
23080;SDS011;11708;50.570;8.532;2023-01-01T15:34:53;9.82;;;3.28;;
23080;SDS011;11708;50.570;8.532;2023-01-01T15:37:33;7.57;;;3.63;;
23080;SDS011;11708;50.570;8.532;2023-01-01T15:40:02;13.10;;;4.40;;
23080;SDS011;11708;50.570;8.532;2023-01-01T15:42:37;8.52;;;3.92;;
23080;SDS011;11708;50.570;8.532;2023-01-01T15:55:56;9.30;;;3.13;;
23080;SDS011;11708;50.570;8.532;2023-01-01T15:58:45;8.73;;;3.13;;
23080;SDS011;11708;50.570;8.532;2023-01-01T16:01:21;7.85;;;3.05;;
23080;SDS011;11708;50.570;8.532;2023-01-01T16:03:51;6.13;;;3.90;;
23080;SDS011;11708;50.570;8.532;2023-01-01T16:06:25;6.57;;;3.30;;
23080;SDS011;11708;50.570;8.532;2023-01-01T16:08:51;7.75;;;3.33;;
23080;SDS011;11708;50.570;8.532;2023-01-01T16:11:17;7.18;;;3.47;;
23080;SDS011;11708;50.570;8.532;2023-01-01T16:13:43;15.68;;;4.03;;
23080;SDS011;11708;50.570;8.532;2023-01-01T16:16:23;6.68;;;3.25;;
23080;SDS011;11708;50.570;8.532;2023-01-01T16:18:51;7.93;;;3.78;;
23080;SDS011;11708;50.570;8.532;2023-01-01T16:21:17;8.13;;;3.72;;
23080;SDS011;11708;50.570;8.532;2023-01-01T16:23:43;9.98;;;3.40;;
23080;SDS011;11708;50.570;8.532;2023-01-01T16:26:09;8.63;;;3.90;;
23080;SDS011;11708;50.570;8.532;2023-01-01T16:28:35;10.63;;;3.25;;
23080;SDS011;11708;50.570;8.532;2023-01-01T16:31:01;7.03;;;3.17;;
23080;SDS011;11708;50.570;8.532;2023-01-01T16:33:28;8.00;;;4.07;;
23080;SDS011;11708;50.570;8.532;2023-01-01T16:35:54;6.13;;;2.80;;
23080;SDS011;11708;50.570;8.532;2023-01-01T16:38:19;9.98;;;3.17;;
23080;SDS011;11708;50.570;8.532;2023-01-01T16:40:45;9.35;;;3.45;;
23080;SDS011;11708;50.570;8.532;2023-01-01T16:43:17;12.90;;;3.58;;
23080;SDS011;11708;50.570;8.532;2023-01-01T16:45:43;5.72;;;3.08;;
23080;SDS011;11708;50.570;8.532;2023-01-01T16:48:09;7.95;;;3.13;;
23080;SDS011;11708;50.570;8.532;2023-01-01T16:50:35;5.35;;;2.97;;